sensor_id;sensor_type;location;lat;lon;timestamp;P1;durP1;ratioP1;P2;durP2;ratioP2
3052;SDS011;1536;51.098;6.414;2023-11-21T00:00:49;15.83;;;7.83;;
3052;SDS011;1536;51.098;6.414;2023-11-21T00:03:16;8.50;;;7.70;;
3052;SDS011;1536;51.098;6.414;2023-11-21T00:05:44;11.45;;;7.50;;
3052;SDS011;1536;51.098;6.414;2023-11-21T00:08:13;8.35;;;7.45;;
3052;SDS011;1536;51.098;6.414;2023-11-21T00:10:39;8.07;;;7.32;;
3052;SDS011;1536;51.098;6.414;2023-11-21T00:13:06;12.40;;;8.60;;
3052;SDS011;1536;51.098;6.414;2023-11-21T00:15:34;10.02;;;8.10;;
3052;SDS011;1536;51.098;6.414;2023-11-21T00:18:01;10.60;;;8.05;;
3052;SDS011;1536;51.098;6.414;2023-11-21T00:20:28;10.82;;;9.27;;
3052;SDS011;1536;51.098;6.414;2023-11-21T00:22:54;13.50;;;9.55;;
3052;SDS011;1536;51.098;6.414;2023-11-21T00:25:21;16.65;;;10.77;;
3052;SDS011;1536;51.098;6.414;2023-11-21T00:27:48;12.35;;;9.73;;
3052;SDS011;1536;51.098;6.414;2023-11-21T00:30:15;12.82;;;10.15;;
3052;SDS011;1536;51.098;6.414;2023-11-21T00:32:42;10.60;;;9.30;;
3052;SDS011;1536;51.098;6.414;2023-11-21T00:35:10;11.70;;;9.80;;
3052;SDS011;1536;51.098;6.414;2023-11-21T00:37:36;13.30;;;10.57;;
3052;SDS011;1536;51.098;6.414;2023-11-21T00:40:05;12.05;;;8.60;;
3052;SDS011;1536;51.098;6.414;2023-11-21T00:42:32;11.98;;;9.25;;
3052;SDS011;1536;51.098;6.414;2023-11-21T00:44:59;10.77;;;9.68;;
3052;SDS011;1536;51.098;6.414;2023-11-21T00:47:26;9.80;;;8.90;;
3052;SDS011;1536;51.098;6.414;2023-11-21T00:49:54;10.43;;;8.75;;
3052;SDS011;1536;51.098;6.414;2023-11-21T00:52:21;13.15;;;9.48;;
3052;SDS011;1536;51.098;6.414;2023-11-21T00:54:48;11.85;;;10.57;;
3052;SDS011;1536;51.098;6.414;2023-11-21T00:57:15;13.25;;;10.65;;
3052;SDS011;1536;51.098;6.414;2023-11-21T00:59:42;12.43;;;11.13;;
3052;SDS011;1536;51.098;6.414;2023-11-21T01:02:09;12.73;;;10.40;;
3052;SDS011;1536;51.098;6.414;2023-11-21T01:04:36;11.25;;;9.77;;
3052;SDS011;1536;51.098;6.414;2023-11-21T01:07:04;11.32;;;9.15;;
3052;SDS011;1536;51.098;6.414;2023-11-21T01:09:31;12.38;;;10.20;;
3052;SDS011;1536;51.098;6.414;2023-11-21T01:11:58;14.18;;;10.63;;
3052;SDS011;1536;51.098;6.414;2023-11-21T01:14:26;12.93;;;11.13;;
3052;SDS011;1536;51.098;6.414;2023-11-21T01:16:53;14.82;;;10.40;;
3052;SDS011;1536;51.098;6.414;2023-11-21T01:19:20;11.68;;;10.48;;
3052;SDS011;1536;51.098;6.414;2023-11-21T01:21:46;10.52;;;9.40;;
3052;SDS011;1536;51.098;6.414;2023-11-21T01:24:14;14.40;;;9.32;;
3052;SDS011;1536;51.098;6.414;2023-11-21T01:26:41;11.50;;;9.50;;
3052;SDS011;1536;51.098;6.414;2023-11-21T01:29:08;17.35;;;10.63;;
3052;SDS011;1536;51.098;6.414;2023-11-21T01:31:35;12.70;;;11.38;;
3052;SDS011;1536;51.098;6.414;2023-11-21T01:34:01;11.00;;;9.80;;
3052;SDS011;1536;51.098;6.414;2023-11-21T01:36:31;10.13;;;9.05;;
3052;SDS011;1536;51.098;6.414;2023-11-21T01:38:58;11.30;;;10.13;;
3052;SDS011;1536;51.098;6.414;2023-11-21T01:41:26;15.70;;;10.20;;
3052;SDS011;1536;51.098;6.414;2023-11-21T01:43:53;15.70;;;10.60;;
3052;SDS011;1536;51.098;6.414;2023-11-21T01:46:21;19.45;;;10.50;;
3052;SDS011;1536;51.098;6.414;2023-11-21T01:48:48;19.45;;;12.60;;
3052;SDS011;1536;51.098;6.414;2023-11-21T01:51:15;13.48;;;11.35;;
3052;SDS011;1536;51.098;6.414;2023-11-21T01:53:43;18.35;;;11.27;;
3052;SDS011;1536;51.098;6.414;2023-11-21T01:56:10;20.35;;;13.18;;
3052;SDS011;1536;51.098;6.414;2023-11-21T01:58:38;18.98;;;12.68;;
3052;SDS011;1536;51.098;6.414;2023-11-21T02:01:06;17.88;;;12.80;;
3052;SDS011;1536;51.098;6.414;2023-11-21T02:03:32;17.95;;;12.52;;
3052;SDS011;1536;51.098;6.414;2023-11-21T02:05:59;19.08;;;13.07;;
3052;SDS011;1536;51.098;6.414;2023-11-21T02:08:26;19.45;;;13.80;;
3052;SDS011;1536;51.098;6.414;2023-11-21T02:10:53;17.58;;;12.18;;
3052;SDS011;1536;51.098;6.414;2023-11-21T02:13:20;21.08;;;13.30;;
3052;SDS011;1536;51.098;6.414;2023-11-21T02:15:48;18.92;;;13.60;;
3052;SDS011;1536;51.098;6.414;2023-11-21T02:18:17;19.75;;;12.95;;
3052;SDS011;1536;51.098;6.414;2023-11-21T02:20:44;17.67;;;12.88;;
3052;SDS011;1536;51.098;6.414;2023-11-21T02:23:13;20.70;;;13.18;;
3052;SDS011;1536;51.098;6.414;2023-11-21T02:25:39;20.35;;;13.85;;
3052;SDS011;1536;51.098;6.414;2023-11-21T02:28:07;20.93;;;14.67;;
3052;SDS011;1536;51.098;6.414;2023-11-21T02:30:37;16.40;;;13.40;;
3052;SDS011;1536;51.098;6.414;2023-11-21T02:33:04;15.88;;;13.00;;
3052;SDS011;1536;51.098;6.414;2023-11-21T02:35:32;22.15;;;13.50;;
3052;SDS011;1536;51.098;6.414;2023-11-21T02:37:59;18.27;;;13.00;;
3052;SDS011;1536;51.098;6.414;2023-11-21T02:40:28;19.80;;;13.00;;
3052;SDS011;1536;51.098;6.414;2023-11-21T02:42:55;15.45;;;12.32;;
3052;SDS011;1536;51.098;6.414;2023-11-21T02:45:24;18.00;;;12.00;;
3052;SDS011;1536;51.098;6.414;2023-11-21T02:47:51;18.00;;;11.73;;
3052;SDS011;1536;51.098;6.414;2023-11-21T02:50:21;18.42;;;12.23;;
3052;SDS011;1536;51.098;6.414;2023-11-21T02:52:48;18.77;;;13.07;;
3052;SDS011;1536;51.098;6.414;2023-11-21T02:55:16;18.83;;;12.40;;
3052;SDS011;1536;51.098;6.414;2023-11-21T02:57:44;14.32;;;11.50;;
3052;SDS011;1536;51.098;6.414;2023-11-21T03:00:11;20.85;;;12.10;;
3052;SDS011;1536;51.098;6.414;2023-11-21T03:02:39;21.10;;;13.63;;
3052;SDS011;1536;51.098;6.414;2023-11-21T03:05:07;16.60;;;12.23;;
3052;SDS011;1536;51.098;6.414;2023-11-21T03:07:35;18.30;;;12.60;;
3052;SDS011;1536;51.098;6.414;2023-11-21T03:10:02;14.43;;;11.88;;
3052;SDS011;1536;51.098;6.414;2023-11-21T03:12:30;19.23;;;12.88;;
3052;SDS011;1536;51.098;6.414;2023-11-21T03:14:58;18.90;;;12.68;;
3052;SDS011;1536;51.098;6.414;2023-11-21T03:17:26;20.98;;;13.35;;
3052;SDS011;1536;51.098;6.414;2023-11-21T03:19:54;21.65;;;13.85;;
3052;SDS011;1536;51.098;6.414;2023-11-21T03:22:22;25.03;;;16.10;;
3052;SDS011;1536;51.098;6.414;2023-11-21T03:24:49;22.73;;;14.45;;
3052;SDS011;1536;51.098;6.414;2023-11-21T03:27:16;19.50;;;14.27;;
3052;SDS011;1536;51.098;6.414;2023-11-21T03:29:42;21.67;;;16.02;;
3052;SDS011;1536;51.098;6.414;2023-11-21T03:32:11;24.38;;;16.48;;
3052;SDS011;1536;51.098;6.414;2023-11-21T03:34:53;23.83;;;16.30;;
3052;SDS011;1536;51.098;6.414;2023-11-21T03:37:21;30.52;;;17.00;;
3052;SDS011;1536;51.098;6.414;2023-11-21T03:39:48;25.52;;;17.48;;
3052;SDS011;1536;51.098;6.414;2023-11-21T03:42:14;26.05;;;16.88;;
3052;SDS011;1536;51.098;6.414;2023-11-21T03:44:41;24.42;;;15.75;;
3052;SDS011;1536;51.098;6.414;2023-11-21T03:47:08;26.07;;;18.30;;
3052;SDS011;1536;51.098;6.414;2023-11-21T03:49:37;23.25;;;16.30;;
3052;SDS011;1536;51.098;6.414;2023-11-21T03:52:04;19.67;;;15.57;;
3052;SDS011;1536;51.098;6.414;2023-11-21T03:54:32;21.13;;;14.50;;
3052;SDS011;1536;51.098;6.414;2023-11-21T03:56:59;23.20;;;15.80;;
3052;SDS011;1536;51.098;6.414;2023-11-21T03:59:26;21.33;;;14.80;;
3052;SDS011;1536;51.098;6.414;2023-11-21T04:01:54;25.08;;;15.35;;
3052;SDS011;1536;51.098;6.414;2023-11-21T04:04:23;22.15;;;15.15;;
3052;SDS011;1536;51.098;6.414;2023-11-21T04:06:49;23.25;;;14.95;;
3052;SDS011;1536;51.098;6.414;2023-11-21T04:09:17;24.75;;;16.50;;
3052;SDS011;1536;51.098;6.414;2023-11-21T04:11:44;21.77;;;15.27;;
3052;SDS011;1536;51.098;6.414;2023-11-21T04:14:11;22.52;;;14.90;;
3052;SDS011;1536;51.098;6.414;2023-11-21T04:16:38;22.38;;;14.18;;
3052;SDS011;1536;51.098;6.414;2023-11-21T04:19:06;27.60;;;14.50;;
3052;SDS011;1536;51.098;6.414;2023-11-21T04:21:35;24.67;;;14.37;;
3052;SDS011;1536;51.098;6.414;2023-11-21T04:24:02;20.00;;;13.75;;
3052;SDS011;1536;51.098;6.414;2023-11-21T04:26:29;25.30;;;14.05;;
3052;SDS011;1536;51.098;6.414;2023-11-21T04:28:56;22.63;;;14.77;;
3052;SDS011;1536;51.098;6.414;2023-11-21T04:31:23;29.67;;;15.43;;
3052;SDS011;1536;51.098;6.414;2023-11-21T04:33:50;27.27;;;15.75;;
3052;SDS011;1536;51.098;6.414;2023-11-21T04:36:17;32.43;;;15.67;;
3052;SDS011;1536;51.098;6.414;2023-11-21T04:38:45;29.55;;;15.77;;
3052;SDS011;1536;51.098;6.414;2023-11-21T04:41:12;27.55;;;15.45;;
3052;SDS011;1536;51.098;6.414;2023-11-21T04:43:39;38.78;;;16.70;;
3052;SDS011;1536;51.098;6.414;2023-11-21T04:46:07;29.30;;;15.60;;
3052;SDS011;1536;51.098;6.414;2023-11-21T04:48:34;25.45;;;15.90;;
3052;SDS011;1536;51.098;6.414;2023-11-21T04:51:01;22.10;;;13.90;;
3052;SDS011;1536;51.098;6.414;2023-11-21T04:53:29;29.40;;;15.10;;
3052;SDS011;1536;51.098;6.414;2023-11-21T04:55:57;25.13;;;14.57;;
3052;SDS011;1536;51.098;6.414;2023-11-21T04:58:24;20.73;;;14.73;;
3052;SDS011;1536;51.098;6.414;2023-11-21T05:00:50;24.25;;;14.48;;
3052;SDS011;1536;51.098;6.414;2023-11-21T05:03:17;26.15;;;14.85;;
3052;SDS011;1536;51.098;6.414;2023-11-21T05:05:44;21.40;;;13.88;;
3052;SDS011;1536;51.098;6.414;2023-11-21T05:08:11;25.17;;;15.38;;
3052;SDS011;1536;51.098;6.414;2023-11-21T05:10:38;31.53;;;17.27;;
3052;SDS011;1536;51.098;6.414;2023-11-21T05:13:06;24.10;;;14.68;;
3052;SDS011;1536;51.098;6.414;2023-11-21T05:15:34;27.90;;;15.95;;
3052;SDS011;1536;51.098;6.414;2023-11-21T05:18:01;23.43;;;16.10;;
3052;SDS011;1536;51.098;6.414;2023-11-21T05:20:28;28.90;;;16.05;;
3052;SDS011;1536;51.098;6.414;2023-11-21T05:22:55;24.65;;;16.85;;
3052;SDS011;1536;51.098;6.414;2023-11-21T05:25:23;23.05;;;14.93;;
3052;SDS011;1536;51.098;6.414;2023-11-21T05:27:50;25.20;;;15.50;;
3052;SDS011;1536;51.098;6.414;2023-11-21T05:30:19;24.30;;;15.20;;
3052;SDS011;1536;51.098;6.414;2023-11-21T05:32:49;25.92;;;17.27;;
3052;SDS011;1536;51.098;6.414;2023-11-21T05:35:16;24.02;;;16.48;;
3052;SDS011;1536;51.098;6.414;2023-11-21T05:37:43;31.55;;;18.92;;
3052;SDS011;1536;51.098;6.414;2023-11-21T05:40:10;28.77;;;19.05;;
3052;SDS011;1536;51.098;6.414;2023-11-21T05:42:38;23.17;;;15.55;;
3052;SDS011;1536;51.098;6.414;2023-11-21T05:45:06;34.55;;;17.25;;
3052;SDS011;1536;51.098;6.414;2023-11-21T05:47:38;28.90;;;17.80;;
3052;SDS011;1536;51.098;6.414;2023-11-21T05:50:06;23.45;;;16.08;;
3052;SDS011;1536;51.098;6.414;2023-11-21T05:52:37;28.10;;;17.15;;
3052;SDS011;1536;51.098;6.414;2023-11-21T05:55:04;29.20;;;16.95;;
3052;SDS011;1536;51.098;6.414;2023-11-21T05:57:32;28.27;;;16.77;;
3052;SDS011;1536;51.098;6.414;2023-11-21T06:00:01;24.98;;;16.23;;
3052;SDS011;1536;51.098;6.414;2023-11-21T06:02:36;22.30;;;16.57;;
3052;SDS011;1536;51.098;6.414;2023-11-21T06:05:04;24.80;;;16.85;;
3052;SDS011;1536;51.098;6.414;2023-11-21T06:07:32;29.88;;;19.92;;
3052;SDS011;1536;51.098;6.414;2023-11-21T06:09:59;31.27;;;20.23;;
3052;SDS011;1536;51.098;6.414;2023-11-21T06:12:27;32.03;;;17.73;;
3052;SDS011;1536;51.098;6.414;2023-11-21T06:14:54;25.88;;;17.77;;
3052;SDS011;1536;51.098;6.414;2023-11-21T06:17:21;28.15;;;16.55;;
3052;SDS011;1536;51.098;6.414;2023-11-21T06:19:51;28.13;;;17.40;;
3052;SDS011;1536;51.098;6.414;2023-11-21T06:22:18;25.97;;;15.83;;
3052;SDS011;1536;51.098;6.414;2023-11-21T06:24:44;26.63;;;17.77;;
3052;SDS011;1536;51.098;6.414;2023-11-21T06:27:11;31.40;;;17.90;;
3052;SDS011;1536;51.098;6.414;2023-11-21T06:29:38;29.95;;;18.52;;
3052;SDS011;1536;51.098;6.414;2023-11-21T06:32:07;26.60;;;17.77;;
3052;SDS011;1536;51.098;6.414;2023-11-21T06:34:34;27.10;;;19.58;;
3052;SDS011;1536;51.098;6.414;2023-11-21T06:37:02;30.77;;;18.43;;
3052;SDS011;1536;51.098;6.414;2023-11-21T06:39:28;29.60;;;17.90;;
3052;SDS011;1536;51.098;6.414;2023-11-21T06:41:55;34.30;;;19.23;;
3052;SDS011;1536;51.098;6.414;2023-11-21T06:44:22;35.63;;;20.70;;
3052;SDS011;1536;51.098;6.414;2023-11-21T06:46:49;31.73;;;20.85;;
3052;SDS011;1536;51.098;6.414;2023-11-21T06:49:16;35.63;;;21.23;;
3052;SDS011;1536;51.098;6.414;2023-11-21T06:51:43;37.45;;;19.55;;
3052;SDS011;1536;51.098;6.414;2023-11-21T06:54:11;36.80;;;20.73;;
3052;SDS011;1536;51.098;6.414;2023-11-21T06:56:39;30.83;;;20.30;;
3052;SDS011;1536;51.098;6.414;2023-11-21T06:59:06;35.47;;;20.77;;
3052;SDS011;1536;51.098;6.414;2023-11-21T07:01:34;37.83;;;22.47;;
3052;SDS011;1536;51.098;6.414;2023-11-21T07:04:04;43.53;;;23.90;;
3052;SDS011;1536;51.098;6.414;2023-11-21T07:06:31;46.38;;;23.90;;
3052;SDS011;1536;51.098;6.414;2023-11-21T07:08:58;39.22;;;20.15;;
3052;SDS011;1536;51.098;6.414;2023-11-21T07:11:27;38.47;;;21.17;;
3052;SDS011;1536;51.098;6.414;2023-11-21T07:13:54;33.67;;;19.60;;
3052;SDS011;1536;51.098;6.414;2023-11-21T07:16:21;37.30;;;20.70;;
3052;SDS011;1536;51.098;6.414;2023-11-21T07:18:48;42.92;;;21.10;;
3052;SDS011;1536;51.098;6.414;2023-11-21T07:21:15;37.22;;;22.70;;
3052;SDS011;1536;51.098;6.414;2023-11-21T07:23:42;42.03;;;22.02;;
3052;SDS011;1536;51.098;6.414;2023-11-21T07:26:09;33.90;;;21.15;;
3052;SDS011;1536;51.098;6.414;2023-11-21T07:28:37;42.03;;;20.92;;
3052;SDS011;1536;51.098;6.414;2023-11-21T07:31:04;36.40;;;21.42;;
3052;SDS011;1536;51.098;6.414;2023-11-21T07:33:31;39.72;;;21.90;;
3052;SDS011;1536;51.098;6.414;2023-11-21T07:35:58;47.33;;;22.80;;
3052;SDS011;1536;51.098;6.414;2023-11-21T07:38:24;45.70;;;24.33;;
3052;SDS011;1536;51.098;6.414;2023-11-21T07:40:53;46.28;;;22.13;;
3052;SDS011;1536;51.098;6.414;2023-11-21T07:43:20;46.50;;;21.37;;
3052;SDS011;1536;51.098;6.414;2023-11-21T07:45:48;41.37;;;20.13;;
3052;SDS011;1536;51.098;6.414;2023-11-21T07:48:15;37.90;;;20.43;;
3052;SDS011;1536;51.098;6.414;2023-11-21T07:50:42;43.67;;;22.70;;
3052;SDS011;1536;51.098;6.414;2023-11-21T07:53:08;45.90;;;21.95;;
3052;SDS011;1536;51.098;6.414;2023-11-21T07:55:35;33.60;;;18.87;;
3052;SDS011;1536;51.098;6.414;2023-11-21T07:58:03;38.50;;;19.77;;
3052;SDS011;1536;51.098;6.414;2023-11-21T08:00:29;45.37;;;21.10;;
3052;SDS011;1536;51.098;6.414;2023-11-21T08:02:57;49.23;;;20.50;;
3052;SDS011;1536;51.098;6.414;2023-11-21T08:05:24;45.83;;;20.50;;
3052;SDS011;1536;51.098;6.414;2023-11-21T08:07:51;50.70;;;20.97;;
3052;SDS011;1536;51.098;6.414;2023-11-21T08:10:17;40.47;;;18.70;;
3052;SDS011;1536;51.098;6.414;2023-11-21T08:12:46;36.97;;;17.83;;
3052;SDS011;1536;51.098;6.414;2023-11-21T08:15:13;37.93;;;17.80;;
3052;SDS011;1536;51.098;6.414;2023-11-21T08:17:41;41.10;;;19.00;;
3052;SDS011;1536;51.098;6.414;2023-11-21T08:20:10;45.30;;;23.80;;
3052;SDS011;1536;51.098;6.414;2023-11-21T08:22:41;36.67;;;20.27;;
3052;SDS011;1536;51.098;6.414;2023-11-21T08:25:08;56.50;;;22.10;;
3052;SDS011;1536;51.098;6.414;2023-11-21T08:27:36;31.03;;;16.60;;
3052;SDS011;1536;51.098;6.414;2023-11-21T08:30:03;40.20;;;16.20;;
3052;SDS011;1536;51.098;6.414;2023-11-21T08:32:30;33.00;;;17.13;;
3052;SDS011;1536;51.098;6.414;2023-11-21T08:34:58;42.83;;;17.47;;
3052;SDS011;1536;51.098;6.414;2023-11-21T08:37:26;36.57;;;16.33;;
3052;SDS011;1536;51.098;6.414;2023-11-21T08:39:55;36.63;;;18.80;;
3052;SDS011;1536;51.098;6.414;2023-11-21T08:42:24;36.67;;;19.13;;
3052;SDS011;1536;51.098;6.414;2023-11-21T08:44:54;40.33;;;18.80;;
3052;SDS011;1536;51.098;6.414;2023-11-21T08:47:22;37.40;;;18.20;;
3052;SDS011;1536;51.098;6.414;2023-11-21T08:49:51;39.57;;;18.33;;
3052;SDS011;1536;51.098;6.414;2023-11-21T08:52:18;49.20;;;17.37;;
3052;SDS011;1536;51.098;6.414;2023-11-21T08:54:47;33.92;;;16.70;;
3052;SDS011;1536;51.098;6.414;2023-11-21T08:57:14;35.67;;;17.00;;
3052;SDS011;1536;51.098;6.414;2023-11-21T08:59:40;30.50;;;15.27;;
3052;SDS011;1536;51.098;6.414;2023-11-21T09:02:07;39.60;;;19.43;;
3052;SDS011;1536;51.098;6.414;2023-11-21T09:04:34;38.50;;;16.70;;
3052;SDS011;1536;51.098;6.414;2023-11-21T09:07:01;43.57;;;18.47;;
3052;SDS011;1536;51.098;6.414;2023-11-21T09:09:27;41.17;;;20.97;;
3052;SDS011;1536;51.098;6.414;2023-11-21T09:11:56;45.97;;;18.97;;
3052;SDS011;1536;51.098;6.414;2023-11-21T09:14:25;42.07;;;18.93;;
3052;SDS011;1536;51.098;6.414;2023-11-21T09:16:52;42.83;;;20.10;;
3052;SDS011;1536;51.098;6.414;2023-11-21T09:19:19;56.90;;;21.20;;
3052;SDS011;1536;51.098;6.414;2023-11-21T09:21:46;47.40;;;21.53;;
3052;SDS011;1536;51.098;6.414;2023-11-21T09:24:12;33.77;;;17.70;;
3052;SDS011;1536;51.098;6.414;2023-11-21T09:26:39;40.00;;;17.40;;
3052;SDS011;1536;51.098;6.414;2023-11-21T09:29:07;42.63;;;18.30;;
3052;SDS011;1536;51.098;6.414;2023-11-21T09:31:34;36.53;;;16.90;;
3052;SDS011;1536;51.098;6.414;2023-11-21T09:34:01;35.83;;;17.03;;
3052;SDS011;1536;51.098;6.414;2023-11-21T09:36:28;33.10;;;17.07;;
3052;SDS011;1536;51.098;6.414;2023-11-21T09:38:55;38.63;;;17.73;;
3052;SDS011;1536;51.098;6.414;2023-11-21T09:41:30;40.00;;;19.47;;
3052;SDS011;1536;51.098;6.414;2023-11-21T09:44:04;38.30;;;18.23;;
3052;SDS011;1536;51.098;6.414;2023-11-21T09:46:36;35.33;;;19.00;;
3052;SDS011;1536;51.098;6.414;2023-11-21T09:49:06;38.90;;;20.80;;
3052;SDS011;1536;51.098;6.414;2023-11-21T09:51:37;44.47;;;21.10;;
3052;SDS011;1536;51.098;6.414;2023-11-21T09:54:07;43.33;;;22.13;;
3052;SDS011;1536;51.098;6.414;2023-11-21T09:56:37;57.90;;;22.53;;
3052;SDS011;1536;51.098;6.414;2023-11-21T09:59:04;46.30;;;21.57;;
3052;SDS011;1536;51.098;6.414;2023-11-21T10:01:36;40.07;;;19.83;;
3052;SDS011;1536;51.098;6.414;2023-11-21T10:04:04;46.07;;;18.27;;
3052;SDS011;1536;51.098;6.414;2023-11-21T10:06:36;39.03;;;17.13;;
3052;SDS011;1536;51.098;6.414;2023-11-21T10:09:04;31.83;;;16.53;;
3052;SDS011;1536;51.098;6.414;2023-11-21T10:11:36;35.23;;;15.80;;
3052;SDS011;1536;51.098;6.414;2023-11-21T10:14:07;33.30;;;15.50;;
3052;SDS011;1536;51.098;6.414;2023-11-21T10:16:39;32.77;;;16.53;;
3052;SDS011;1536;51.098;6.414;2023-11-21T10:19:09;31.73;;;16.40;;
3052;SDS011;1536;51.098;6.414;2023-11-21T10:21:40;34.40;;;16.07;;
3052;SDS011;1536;51.098;6.414;2023-11-21T10:24:07;29.90;;;16.23;;
3052;SDS011;1536;51.098;6.414;2023-11-21T10:26:34;37.07;;;18.53;;
3052;SDS011;1536;51.098;6.414;2023-11-21T10:29:02;35.60;;;17.10;;
3052;SDS011;1536;51.098;6.414;2023-11-21T10:31:29;39.43;;;17.50;;
3052;SDS011;1536;51.098;6.414;2023-11-21T10:34:11;36.07;;;17.57;;
3052;SDS011;1536;51.098;6.414;2023-11-21T10:36:43;37.80;;;18.50;;
3052;SDS011;1536;51.098;6.414;2023-11-21T10:39:13;45.03;;;24.30;;
3052;SDS011;1536;51.098;6.414;2023-11-21T10:41:43;38.97;;;18.17;;
3052;SDS011;1536;51.098;6.414;2023-11-21T10:44:10;39.13;;;17.30;;
3052;SDS011;1536;51.098;6.414;2023-11-21T10:46:39;34.80;;;15.53;;
3052;SDS011;1536;51.098;6.414;2023-11-21T10:49:07;34.23;;;16.53;;
3052;SDS011;1536;51.098;6.414;2023-11-21T10:51:36;38.87;;;17.07;;
3052;SDS011;1536;51.098;6.414;2023-11-21T10:54:03;32.53;;;16.67;;
3052;SDS011;1536;51.098;6.414;2023-11-21T10:56:30;38.30;;;17.20;;
3052;SDS011;1536;51.098;6.414;2023-11-21T10:59:00;39.40;;;17.07;;
3052;SDS011;1536;51.098;6.414;2023-11-21T11:01:27;36.20;;;16.00;;
3052;SDS011;1536;51.098;6.414;2023-11-21T11:03:57;37.03;;;16.50;;
3052;SDS011;1536;51.098;6.414;2023-11-21T11:06:25;34.90;;;15.13;;
3052;SDS011;1536;51.098;6.414;2023-11-21T11:08:55;34.97;;;15.37;;
3052;SDS011;1536;51.098;6.414;2023-11-21T11:11:22;34.97;;;16.30;;
3052;SDS011;1536;51.098;6.414;2023-11-21T11:13:50;33.63;;;15.67;;
3052;SDS011;1536;51.098;6.414;2023-11-21T11:16:18;32.90;;;16.37;;
3052;SDS011;1536;51.098;6.414;2023-11-21T11:18:47;33.53;;;17.50;;
3052;SDS011;1536;51.098;6.414;2023-11-21T11:21:18;34.80;;;16.07;;
3052;SDS011;1536;51.098;6.414;2023-11-21T11:23:59;30.00;;;16.20;;
3052;SDS011;1536;51.098;6.414;2023-11-21T11:26:39;30.40;;;16.00;;
3052;SDS011;1536;51.098;6.414;2023-11-21T11:29:14;34.83;;;17.37;;
3052;SDS011;1536;51.098;6.414;2023-11-21T11:31:53;37.97;;;15.57;;
3052;SDS011;1536;51.098;6.414;2023-11-21T11:34:29;32.37;;;16.27;;
3052;SDS011;1536;51.098;6.414;2023-11-21T11:37:00;34.77;;;17.67;;
3052;SDS011;1536;51.098;6.414;2023-11-21T11:39:30;39.80;;;16.17;;
3052;SDS011;1536;51.098;6.414;2023-11-21T11:42:01;34.10;;;16.07;;
3052;SDS011;1536;51.098;6.414;2023-11-21T11:44:50;35.50;;;17.00;;
3052;SDS011;1536;51.098;6.414;2023-11-21T11:47:20;34.77;;;17.50;;
3052;SDS011;1536;51.098;6.414;2023-11-21T11:49:55;39.93;;;16.93;;
3052;SDS011;1536;51.098;6.414;2023-11-21T11:52:33;36.80;;;16.23;;
3052;SDS011;1536;51.098;6.414;2023-11-21T11:55:03;33.80;;;15.33;;
3052;SDS011;1536;51.098;6.414;2023-11-21T11:57:30;34.10;;;17.90;;
3052;SDS011;1536;51.098;6.414;2023-11-21T12:00:07;36.40;;;17.10;;
3052;SDS011;1536;51.098;6.414;2023-11-21T12:02:36;34.47;;;15.83;;
3052;SDS011;1536;51.098;6.414;2023-11-21T12:05:07;41.47;;;17.80;;
3052;SDS011;1536;51.098;6.414;2023-11-21T12:07:41;29.60;;;15.77;;
3052;SDS011;1536;51.098;6.414;2023-11-21T12:10:13;34.57;;;14.70;;
3052;SDS011;1536;51.098;6.414;2023-11-21T12:12:43;30.10;;;15.13;;
3052;SDS011;1536;51.098;6.414;2023-11-21T12:15:12;30.83;;;16.63;;
3052;SDS011;1536;51.098;6.414;2023-11-21T12:17:40;39.27;;;15.30;;
3052;SDS011;1536;51.098;6.414;2023-11-21T12:20:08;28.63;;;14.97;;
3052;SDS011;1536;51.098;6.414;2023-11-21T12:22:41;31.43;;;15.73;;
3052;SDS011;1536;51.098;6.414;2023-11-21T12:25:09;24.27;;;14.57;;
3052;SDS011;1536;51.098;6.414;2023-11-21T12:27:41;29.10;;;14.23;;
3052;SDS011;1536;51.098;6.414;2023-11-21T12:30:11;29.00;;;14.10;;
3052;SDS011;1536;51.098;6.414;2023-11-21T12:32:40;34.50;;;15.40;;
3052;SDS011;1536;51.098;6.414;2023-11-21T12:35:08;31.07;;;14.50;;
3052;SDS011;1536;51.098;6.414;2023-11-21T12:37:36;24.17;;;13.17;;
3052;SDS011;1536;51.098;6.414;2023-11-21T12:40:04;27.00;;;12.13;;
3052;SDS011;1536;51.098;6.414;2023-11-21T12:42:33;26.20;;;13.60;;
3052;SDS011;1536;51.098;6.414;2023-11-21T12:45:09;28.80;;;12.93;;
3052;SDS011;1536;51.098;6.414;2023-11-21T12:47:41;26.57;;;12.70;;
3052;SDS011;1536;51.098;6.414;2023-11-21T12:50:08;28.20;;;14.80;;
3052;SDS011;1536;51.098;6.414;2023-11-21T12:52:40;19.40;;;11.20;;
3052;SDS011;1536;51.098;6.414;2023-11-21T12:55:13;20.30;;;9.80;;
3052;SDS011;1536;51.098;6.414;2023-11-21T12:57:42;25.10;;;11.83;;
3052;SDS011;1536;51.098;6.414;2023-11-21T13:00:12;21.73;;;10.27;;
3052;SDS011;1536;51.098;6.414;2023-11-21T13:02:52;21.17;;;9.13;;
3052;SDS011;1536;51.098;6.414;2023-11-21T13:05:28;17.20;;;8.70;;
3052;SDS011;1536;51.098;6.414;2023-11-21T13:07:56;21.87;;;9.30;;
3052;SDS011;1536;51.098;6.414;2023-11-21T13:10:25;14.90;;;8.97;;
3052;SDS011;1536;51.098;6.414;2023-11-21T13:12:56;20.40;;;10.20;;
3052;SDS011;1536;51.098;6.414;2023-11-21T13:15:26;23.00;;;9.93;;
3052;SDS011;1536;51.098;6.414;2023-11-21T13:17:53;20.43;;;10.47;;
3052;SDS011;1536;51.098;6.414;2023-11-21T13:20:24;21.63;;;10.20;;
3052;SDS011;1536;51.098;6.414;2023-11-21T13:22:52;16.80;;;9.43;;
3052;SDS011;1536;51.098;6.414;2023-11-21T13:25:22;18.60;;;9.67;;
3052;SDS011;1536;51.098;6.414;2023-11-21T13:27:49;17.23;;;10.17;;
3052;SDS011;1536;51.098;6.414;2023-11-21T13:30:16;17.97;;;11.43;;
3052;SDS011;1536;51.098;6.414;2023-11-21T13:32:49;20.33;;;9.50;;
3052;SDS011;1536;51.098;6.414;2023-11-21T13:35:16;20.53;;;9.97;;
3052;SDS011;1536;51.098;6.414;2023-11-21T13:37:48;20.30;;;10.57;;
3052;SDS011;1536;51.098;6.414;2023-11-21T13:40:20;20.80;;;10.60;;
3052;SDS011;1536;51.098;6.414;2023-11-21T13:42:51;16.37;;;10.50;;
3052;SDS011;1536;51.098;6.414;2023-11-21T13:45:20;21.77;;;11.33;;
3052;SDS011;1536;51.098;6.414;2023-11-21T13:47:50;16.77;;;10.83;;
3052;SDS011;1536;51.098;6.414;2023-11-21T13:50:17;17.80;;;11.20;;
3052;SDS011;1536;51.098;6.414;2023-11-21T13:52:48;15.80;;;9.63;;
3052;SDS011;1536;51.098;6.414;2023-11-21T13:55:16;27.67;;;12.30;;
3052;SDS011;1536;51.098;6.414;2023-11-21T13:57:43;20.47;;;11.33;;
3052;SDS011;1536;51.098;6.414;2023-11-21T14:00:12;23.53;;;10.33;;
3052;SDS011;1536;51.098;6.414;2023-11-21T14:03:02;17.20;;;10.00;;
3052;SDS011;1536;51.098;6.414;2023-11-21T14:05:33;21.83;;;10.97;;
3052;SDS011;1536;51.098;6.414;2023-11-21T14:08:00;18.47;;;11.20;;
3052;SDS011;1536;51.098;6.414;2023-11-21T14:10:29;24.10;;;11.90;;
3052;SDS011;1536;51.098;6.414;2023-11-21T14:13:05;19.87;;;11.40;;
3052;SDS011;1536;51.098;6.414;2023-11-21T14:15:32;23.43;;;11.20;;
3052;SDS011;1536;51.098;6.414;2023-11-21T14:18:04;19.67;;;10.77;;
3052;SDS011;1536;51.098;6.414;2023-11-21T14:20:35;19.10;;;10.10;;
3052;SDS011;1536;51.098;6.414;2023-11-21T14:23:02;23.07;;;11.83;;
3052;SDS011;1536;51.098;6.414;2023-11-21T14:25:29;20.50;;;11.53;;
3052;SDS011;1536;51.098;6.414;2023-11-21T14:27:57;20.30;;;11.60;;
3052;SDS011;1536;51.098;6.414;2023-11-21T14:30:23;27.07;;;11.80;;
3052;SDS011;1536;51.098;6.414;2023-11-21T14:32:52;18.73;;;12.43;;
3052;SDS011;1536;51.098;6.414;2023-11-21T14:35:20;19.50;;;12.90;;
3052;SDS011;1536;51.098;6.414;2023-11-21T14:37:47;18.73;;;10.30;;
3052;SDS011;1536;51.098;6.414;2023-11-21T14:40:16;18.70;;;10.10;;
3052;SDS011;1536;51.098;6.414;2023-11-21T14:42:46;19.50;;;11.33;;
3052;SDS011;1536;51.098;6.414;2023-11-21T14:45:14;23.33;;;12.30;;
3052;SDS011;1536;51.098;6.414;2023-11-21T14:47:44;20.17;;;11.37;;
3052;SDS011;1536;51.098;6.414;2023-11-21T14:50:18;15.77;;;10.80;;
3052;SDS011;1536;51.098;6.414;2023-11-21T14:53:04;18.33;;;10.80;;
3052;SDS011;1536;51.098;6.414;2023-11-21T14:55:31;19.13;;;11.33;;
3052;SDS011;1536;51.098;6.414;2023-11-21T14:58:04;16.40;;;10.60;;